createdAt,value
2022-09-21T00:01:21.634Z,101935.28
2022-09-21T00:03:52.206Z,101937.94
2022-09-21T00:06:21.264Z,101937.06
2022-09-21T00:08:48.822Z,101929.97
2022-09-21T00:11:21.514Z,101926.50
2022-09-21T00:13:52.124Z,101919.47
2022-09-21T00:16:18.968Z,101924.78
2022-09-21T00:18:45.926Z,101924.78
2022-09-21T00:21:15.433Z,101923.06
2022-09-21T00:23:42.928Z,101926.66
2022-09-21T00:26:11.244Z,101929.31
2022-09-21T00:28:38.827Z,101924.94
2022-09-21T00:31:07.929Z,101931.13
2022-09-21T00:33:35.237Z,101922.28
2022-09-21T00:36:06.328Z,101926.81
2022-09-21T00:38:33.484Z,101927.69
2022-09-21T00:41:00.591Z,101929.47
2022-09-21T00:43:27.805Z,101923.28
2022-09-21T00:46:04.169Z,101930.41
2022-09-21T00:48:31.641Z,101926.03
2022-09-21T00:51:04.487Z,101926.97
2022-09-21T00:53:32.382Z,101919.03
2022-09-21T00:55:59.651Z,101911.00
2022-09-21T00:58:37.225Z,101914.59
2022-09-21T01:01:04.099Z,101914.59
2022-09-21T01:03:32.377Z,101916.47
2022-09-21T01:05:59.175Z,101919.13
2022-09-21T01:08:27.825Z,101920.06
2022-09-21T01:11:19.071Z,101918.34
2022-09-21T01:14:00.599Z,101911.31
2022-09-21T01:16:46.013Z,101911.31
2022-09-21T01:19:47.905Z,101920.25
2022-09-21T01:22:27.169Z,101927.25
2022-09-21T01:25:44.234Z,101921.16
2022-09-21T01:28:35.263Z,101930.00
2022-09-21T01:31:06.255Z,101930.06
2022-09-21T01:33:40.001Z,101932.72
2022-09-21T01:36:13.085Z,101928.34
2022-09-21T01:38:50.366Z,101931.03
2022-09-21T01:41:23.100Z,101934.59
2022-09-21T01:43:55.902Z,101930.28
2022-09-21T01:46:27.472Z,101929.38
2022-09-21T01:49:00.210Z,101938.19
2022-09-21T01:51:29.333Z,101931.16
2022-09-21T01:54:00.138Z,101935.59
2022-09-21T01:56:41.883Z,101934.75
2022-09-21T01:59:37.782Z,101933.88
2022-09-21T02:02:25.307Z,101928.56
2022-09-21T02:04:52.351Z,101936.59
2022-09-21T02:07:19.767Z,101933.94
2022-09-21T02:09:48.474Z,101929.63
2022-09-21T02:12:18.890Z,101925.19
2022-09-21T02:14:46.547Z,101927.84
2022-09-21T02:17:23.956Z,101926.09
2022-09-21T02:20:05.835Z,101919.91
2022-09-21T02:22:53.392Z,101918.28
2022-09-21T02:25:29.237Z,101914.69
2022-09-21T02:28:15.613Z,101912.03
2022-09-21T02:30:52.411Z,101906.88
2022-09-21T02:33:41.585Z,101906.78
2022-09-21T02:36:16.122Z,101897.97
2022-09-21T02:39:15.890Z,101900.63
2022-09-21T02:42:04.398Z,101887.34
2022-09-21T02:44:39.300Z,101893.56
2022-09-21T02:47:19.298Z,101890.06
2022-09-21T02:49:52.504Z,101882.16
2022-09-21T02:52:21.678Z,101890.91
2022-09-21T02:54:52.629Z,101883.03
2022-09-21T02:57:22.362Z,101874.97
2022-09-21T02:59:50.656Z,101878.56
2022-09-21T03:02:17.655Z,101874.19
2022-09-21T03:04:50.237Z,101885.75
2022-09-21T03:07:17.552Z,101887.63
2022-09-21T03:09:45.163Z,101876.91
2022-09-21T03:12:12.208Z,101882.22
2022-09-21T03:14:39.382Z,101878.72
2022-09-21T03:17:06.199Z,101879.66
2022-09-21T03:19:33.073Z,101869.94
2022-09-21T03:22:00.427Z,101870.81
2022-09-21T03:24:45.656Z,101861.09
2022-09-21T03:27:20.938Z,101868.16
2022-09-21T03:29:48.338Z,101873.56
2022-09-21T03:32:15.634Z,101868.25
2022-09-21T03:34:42.745Z,101876.22
2022-09-21T03:37:11.034Z,101866.50
2022-09-21T03:39:38.002Z,101864.78
2022-09-21T03:42:05.072Z,101864.78
2022-09-21T03:44:31.907Z,101855.09
2022-09-21T03:46:58.834Z,101851.50
2022-09-21T03:49:25.738Z,101847.13
2022-09-21T03:51:52.582Z,101840.94
2022-09-21T03:54:19.472Z,101847.19
2022-09-21T03:56:46.338Z,101848.06
2022-09-21T03:59:14.394Z,101848.16
2022-09-21T04:01:41.891Z,101845.53
2022-09-21T04:04:08.887Z,101847.28
2022-09-21T04:06:35.928Z,101841.97
2022-09-21T04:09:03.815Z,101839.38
2022-09-21T04:11:32.717Z,101842.88
2022-09-21T04:14:00.190Z,101850.00
2022-09-21T04:16:27.776Z,101833.22
2022-09-21T04:18:54.926Z,101841.19
2022-09-21T04:21:24.575Z,101835.06
2022-09-21T04:23:51.923Z,101836.72
2022-09-21T04:26:25.054Z,101835.00
2022-09-21T04:28:53.276Z,101829.75
2022-09-21T04:31:20.487Z,101830.63
2022-09-21T04:33:51.593Z,101829.75
2022-09-21T04:36:19.461Z,101823.59
2022-09-21T04:38:47.029Z,101823.59
2022-09-21T04:41:14.425Z,101828.03
2022-09-21T04:43:49.245Z,101828.91
2022-09-21T04:46:18.749Z,101836.78
2022-09-21T04:48:46.965Z,101827.19
2022-09-21T04:51:15.346Z,101832.34
2022-09-21T04:53:44.247Z,101827.91
2022-09-21T04:56:14.702Z,101832.25
2022-09-21T04:58:41.760Z,101832.25
2022-09-21T05:01:08.650Z,101833.13
2022-09-21T05:03:35.655Z,101835.78
2022-09-21T05:06:02.861Z,101826.03
2022-09-21T05:08:48.481Z,101831.38
2022-09-21T05:11:20.839Z,101835.78
2022-09-21T05:13:48.215Z,101839.31
2022-09-21T05:16:16.324Z,101836.66
2022-09-21T05:18:43.631Z,101847.13
2022-09-21T05:21:12.709Z,101834.63
2022-09-21T05:23:39.864Z,101842.50
2022-09-21T05:26:06.821Z,101826.56
2022-09-21T05:28:39.097Z,101820.25
2022-09-21T05:31:25.434Z,101824.56
2022-09-21T05:33:56.573Z,101831.53
2022-09-21T05:36:29.193Z,101829.63
2022-09-21T05:38:56.992Z,101826.97
2022-09-21T05:41:24.153Z,101825.03
2022-09-21T05:43:51.488Z,101820.53
2022-09-21T05:46:42.913Z,101819.56
2022-09-21T05:49:32.609Z,101825.69
2022-09-21T05:52:17.882Z,101825.59
2022-09-21T05:54:49.765Z,101823.72
2022-09-21T05:57:34.752Z,101830.00
2022-09-21T06:00:12.163Z,101830.84
2022-09-21T06:02:51.244Z,101845.84
2022-09-21T06:05:18.453Z,101833.44
2022-09-21T06:07:45.401Z,101842.19
2022-09-21T06:10:14.472Z,101843.97
2022-09-21T06:12:41.461Z,101846.63
2022-09-21T06:15:12.720Z,101840.50
2022-09-21T06:17:39.928Z,101842.28
2022-09-21T06:20:07.803Z,101838.75
2022-09-21T06:22:35.479Z,101837.88
2022-09-21T06:25:02.398Z,101838.47
2022-09-21T06:27:30.615Z,101834.47
2022-09-21T06:29:57.642Z,101833.84
2022-09-21T06:32:24.803Z,101839.44
2022-09-21T06:34:51.708Z,101836.78
2022-09-21T06:37:18.753Z,101837.44
2022-09-21T06:39:45.835Z,101831.19
2022-09-21T06:42:12.718Z,101828.38
2022-09-21T06:44:39.550Z,101833.59
2022-09-21T06:47:06.508Z,101831.03
2022-09-21T06:49:33.387Z,101833.59
2022-09-21T06:52:00.452Z,101834.47
2022-09-21T06:54:27.817Z,101839.84
2022-09-21T06:56:59.817Z,101830.19
2022-09-21T06:59:26.994Z,101836.34
2022-09-21T07:01:56.123Z,101842.50
2022-09-21T07:04:25.332Z,101836.34
2022-09-21T07:06:52.365Z,101831.97
2022-09-21T07:12:08.424Z,101826.56
2022-09-21T07:14:35.518Z,101823.06
2022-09-21T07:17:03.094Z,101822.97
2022-09-21T07:19:30.171Z,101814.22
2022-09-21T07:21:57.267Z,101814.22
2022-09-21T07:24:24.237Z,101813.38
2022-09-21T07:26:51.091Z,101809.84
2022-09-21T07:29:18.031Z,101802.72
2022-09-21T07:31:45.425Z,101806.41
2022-09-21T07:34:12.571Z,101805.47
2022-09-21T07:36:39.520Z,101805.47
2022-09-21T07:39:06.814Z,101808.13
2022-09-21T07:41:33.870Z,101803.66
2022-09-21T07:44:00.988Z,101804.63
2022-09-21T07:46:27.864Z,101803.66
2022-09-21T07:48:55.952Z,101789.53
2022-09-21T07:51:25.256Z,101786.88
2022-09-21T07:53:59.556Z,101792.19
2022-09-21T07:56:26.661Z,101796.56
2022-09-21T07:59:09.145Z,101792.09
2022-09-21T08:01:38.701Z,101783.22
2022-09-21T08:04:07.618Z,101779.59
2022-09-21T08:06:36.165Z,101773.41
2022-09-21T08:09:04.316Z,101775.16
2022-09-21T08:11:33.494Z,101770.69
2022-09-21T08:14:02.849Z,101759.19
2022-09-21T08:16:31.637Z,101762.63
2022-09-21T08:18:58.730Z,101757.25
2022-09-21T08:21:25.793Z,101761.56
2022-09-21T08:23:52.670Z,101763.25
2022-09-21T08:26:20.958Z,101764.13
2022-09-21T08:28:50.173Z,101760.53
2022-09-21T08:31:19.927Z,101759.59
2022-09-21T08:33:48.434Z,101756.00
2022-09-21T08:36:15.833Z,101744.50
2022-09-21T08:38:42.789Z,101749.75
2022-09-21T08:41:23.003Z,101749.66
2022-09-21T08:44:20.401Z,101754.00
2022-09-21T08:47:04.095Z,101747.75
2022-09-21T08:49:35.735Z,101747.59
2022-09-21T08:52:07.083Z,101744.94
2022-09-21T08:54:42.961Z,101744.94
2022-09-21T08:57:14.682Z,101743.91
2022-09-21T08:59:48.021Z,101742.13
2022-09-21T09:02:52.905Z,101731.41
2022-09-21T09:05:37.168Z,101739.28
2022-09-21T09:08:10.350Z,101740.16
2022-09-21T09:11:00.298Z,101738.25
2022-09-21T09:13:35.930Z,101740.84
2022-09-21T09:16:24.119Z,101735.44
2022-09-21T09:19:36.344Z,101732.72
2022-09-21T09:22:07.440Z,101734.44
2022-09-21T09:24:49.338Z,101733.41
2022-09-21T09:27:22.184Z,101729.97
2022-09-21T09:30:02.933Z,101727.25
2022-09-21T09:32:41.544Z,101726.44
2022-09-21T09:35:46.212Z,101719.28
2022-09-21T09:38:24.877Z,101721.84
2022-09-21T09:40:51.849Z,101717.38
2022-09-21T09:43:52.939Z,101709.41
2022-09-21T09:46:31.919Z,101718.16
2022-09-21T09:49:28.926Z,101716.22
2022-09-21T09:51:56.082Z,101715.19
2022-09-21T09:54:26.645Z,101711.56
2022-09-21T09:56:55.451Z,101710.56
2022-09-21T09:59:45.362Z,101703.44
2022-09-21T10:02:18.407Z,101705.25
2022-09-21T10:05:20.644Z,101704.22
2022-09-21T10:07:47.923Z,101708.59
2022-09-21T10:10:30.207Z,101692.56
2022-09-21T10:13:02.913Z,101703.19
2022-09-21T10:15:30.363Z,101705.06
2022-09-21T10:18:12.041Z,101700.59
2022-09-21T10:20:39.264Z,101699.69
2022-09-21T10:23:06.279Z,101693.59
2022-09-21T10:25:38.058Z,101701.38
2022-09-21T10:28:07.029Z,101696.91
2022-09-21T10:30:38.866Z,101684.59
2022-09-21T10:33:20.846Z,101684.66
2022-09-21T10:35:53.131Z,101681.13
2022-09-21T10:38:29.669Z,101683.72
2022-09-21T10:40:56.802Z,101680.97
2022-09-21T10:43:39.821Z,101678.31
2022-09-21T10:46:09.983Z,101668.38
2022-09-21T10:48:37.832Z,101677.09
2022-09-21T10:51:05.108Z,101667.16
2022-09-21T10:53:35.095Z,101654.63
2022-09-21T10:56:22.110Z,101651.13
2022-09-21T10:59:20.038Z,101650.03
2022-09-21T11:01:51.812Z,101646.41
2022-09-21T11:04:21.619Z,101654.38
2022-09-21T11:06:53.629Z,101647.19
2022-09-21T11:10:03.779Z,101641.66
2022-09-21T11:12:42.158Z,101645.13
2022-09-21T11:15:38.024Z,101637.91
2022-09-21T11:18:04.961Z,101638.69
2022-09-21T11:20:39.954Z,101639.44
2022-09-21T11:23:12.835Z,101629.75
2022-09-21T11:26:01.741Z,101640.31
2022-09-21T11:28:43.536Z,101626.13
2022-09-21T11:31:34.758Z,101626.06
2022-09-21T11:34:14.588Z,101626.94
2022-09-21T11:37:10.303Z,101611.72
2022-09-21T11:39:37.107Z,101602.81
2022-09-21T11:42:41.062Z,101603.59
2022-09-21T11:45:49.690Z,101600.75
2022-09-21T11:48:45.582Z,101592.59
2022-09-21T11:51:38.309Z,101589.94
2022-09-21T11:54:08.804Z,101602.28
2022-09-21T11:56:45.831Z,101592.50
2022-09-21T11:59:39.234Z,101596.94
2022-09-21T12:02:27.701Z,101599.63
2022-09-21T12:05:15.965Z,101586.31
2022-09-21T12:07:55.110Z,101587.94
2022-09-21T12:10:24.732Z,101581.56
2022-09-21T12:13:00.300Z,101574.34
2022-09-21T12:15:44.904Z,101570.84
2022-09-21T12:18:27.810Z,101580.81
2022-09-21T12:21:09.131Z,101565.78
2022-09-21T12:23:40.257Z,101576.53
2022-09-21T12:26:07.757Z,101565.13
2022-09-21T12:28:51.891Z,101574.72
2022-09-21T12:31:26.799Z,101564.84
2022-09-21T12:34:14.523Z,101568.38
2022-09-21T12:37:04.659Z,101565.78
2022-09-21T12:39:43.213Z,101560.22
2022-09-21T12:42:31.651Z,101567.22
2022-09-21T12:45:07.815Z,101561.75
2022-09-21T12:47:53.210Z,101566.06
2022-09-21T12:50:28.677Z,101552.66
2022-09-21T12:52:57.811Z,101559.03
2022-09-21T12:55:29.268Z,101550.00
2022-09-21T12:58:16.162Z,101559.03
2022-09-21T13:00:57.228Z,101551.88
2022-09-21T13:03:55.414Z,101547.59
2022-09-21T13:06:41.526Z,101544.00
2022-09-21T13:09:13.445Z,101542.19
2022-09-21T13:12:04.679Z,101539.53
2022-09-21T13:14:36.567Z,101537.75
2022-09-21T13:17:06.315Z,101529.66
2022-09-21T13:19:35.694Z,101524.31
2022-09-21T13:22:20.110Z,101521.56
2022-09-21T13:25:03.185Z,101517.97
2022-09-21T13:28:13.878Z,101517.03
2022-09-21T13:30:49.404Z,101513.38
2022-09-21T13:33:19.174Z,101516.91
2022-09-21T13:35:52.636Z,101513.38
2022-09-21T13:38:41.956Z,101509.03
2022-09-21T13:41:17.962Z,101504.47
2022-09-21T13:43:48.502Z,101494.69
2022-09-21T13:46:36.686Z,101493.81
2022-09-21T13:49:15.814Z,101499.25
2022-09-21T13:52:06.217Z,101498.38
2022-09-21T13:54:58.406Z,101500.06
2022-09-21T13:57:37.153Z,101495.53
2022-09-21T14:00:07.878Z,101491.16
2022-09-21T14:02:39.089Z,101488.50
2022-09-21T14:05:26.185Z,101492.09
2022-09-21T14:08:00.553Z,101495.72
2022-09-21T14:10:29.971Z,101490.41
2022-09-21T14:12:57.022Z,101492.97
2022-09-21T14:15:23.913Z,101484.91
2022-09-21T14:18:17.158Z,101474.31
2022-09-21T14:21:08.741Z,101486.78
2022-09-21T14:23:37.723Z,101483.16
2022-09-21T14:26:31.743Z,101479.66
2022-09-21T14:28:59.347Z,101482.41
2022-09-21T14:31:33.521Z,101476.91
2022-09-21T14:34:05.000Z,101464.53
2022-09-21T14:36:42.055Z,101471.66
2022-09-21T14:39:22.052Z,101473.47
2022-09-21T14:41:54.022Z,101471.59
2022-09-21T14:44:31.363Z,101461.97
2022-09-21T14:47:09.739Z,101462.81
2022-09-21T14:49:36.990Z,101459.22
2022-09-21T14:52:35.897Z,101456.44
2022-09-21T14:55:18.339Z,101444.28
2022-09-21T14:58:00.552Z,101435.44
2022-09-21T15:00:43.726Z,101434.50
2022-09-21T15:03:30.946Z,101430.13
2022-09-21T15:07:02.537Z,101420.22
2022-09-21T15:10:00.199Z,101421.94
2022-09-21T15:12:46.929Z,101417.38
2022-09-21T15:15:32.414Z,101416.63
2022-09-21T15:18:02.994Z,101409.56
2022-09-21T15:20:32.581Z,101407.00
2022-09-21T15:23:00.656Z,101415.75
2022-09-21T15:25:32.477Z,101408.75
2022-09-21T15:28:00.922Z,101400.81
2022-09-21T15:30:33.504Z,101404.44
2022-09-21T15:33:02.359Z,101396.38
2022-09-21T15:35:32.878Z,101398.09
2022-09-21T15:38:01.715Z,101397.22
2022-09-21T15:40:32.025Z,101393.88
2022-09-21T15:43:06.782Z,101390.38
2022-09-21T15:45:37.692Z,101385.78
2022-09-21T15:48:13.865Z,101377.81
2022-09-21T15:50:43.285Z,101379.63
2022-09-21T15:53:19.919Z,101386.75
2022-09-21T15:55:48.153Z,101373.34
2022-09-21T15:58:37.534Z,101370.78
2022-09-21T16:01:13.587Z,101375.25
2022-09-21T16:03:42.046Z,101376.19
2022-09-21T16:06:29.396Z,101369.06
2022-09-21T16:08:57.619Z,101378.66
2022-09-21T16:11:28.326Z,101363.56
2022-09-21T16:14:37.422Z,101377.63
2022-09-21T16:17:20.594Z,101369.94
2022-09-21T16:20:00.329Z,101365.06
2022-09-21T16:22:40.465Z,101357.06
2022-09-21T16:25:30.503Z,101355.16
2022-09-21T16:28:11.390Z,101362.06
2022-09-21T16:30:40.950Z,101362.06
2022-09-21T16:33:31.034Z,101358.41
2022-09-21T16:35:59.206Z,101357.56
2022-09-21T16:38:26.639Z,101366.41
2022-09-21T16:40:54.433Z,101356.81
2022-09-21T16:43:23.766Z,101349.84
2022-09-21T16:45:50.919Z,101349.09
2022-09-21T16:48:17.981Z,101349.94
2022-09-21T16:50:44.907Z,101344.50
2022-09-21T16:53:12.277Z,101347.97
2022-09-21T16:55:43.271Z,101347.09
2022-09-21T16:58:10.383Z,101346.25
2022-09-21T17:00:43.740Z,101345.28
2022-09-21T17:03:12.557Z,101358.59
2022-09-21T17:05:39.445Z,101350.78
2022-09-21T17:08:06.444Z,101349.84
2022-09-21T17:10:38.707Z,101347.09
2022-09-21T17:13:07.310Z,101339.19
2022-09-21T17:15:35.439Z,101329.31
2022-09-21T17:18:03.597Z,101336.53
2022-09-21T17:20:36.345Z,101324.16
2022-09-21T17:23:04.550Z,101335.50
2022-09-21T17:25:33.231Z,101340.91
2022-09-21T17:28:01.230Z,101336.38
2022-09-21T17:30:28.912Z,101343.31
2022-09-21T17:32:57.047Z,101340.75
2022-09-21T17:35:31.683Z,101337.88
2022-09-21T17:37:59.302Z,101336.94
2022-09-21T17:40:27.552Z,101333.22
2022-09-21T17:43:06.788Z,101338.25
2022-09-21T17:45:40.573Z,101330.00
2022-09-21T17:48:19.120Z,101325.44
2022-09-21T17:50:46.348Z,101320.66
2022-09-21T17:53:32.787Z,101324.94
2022-09-21T17:56:10.122Z,101320.28
2022-09-21T17:58:52.441Z,101315.59
2022-09-21T18:01:25.756Z,101306.69
2022-09-21T18:03:53.246Z,101316.28
2022-09-21T18:06:20.460Z,101311.81
2022-09-21T18:08:47.991Z,101302.88
2022-09-21T18:11:40.286Z,101301.59
2022-09-21T18:14:44.766Z,101310.38
2022-09-21T18:17:32.631Z,101306.66
2022-09-21T18:20:05.261Z,101304.84
2022-09-21T18:22:58.600Z,101305.50
2022-09-21T18:25:32.902Z,101300.16
2022-09-21T18:28:12.689Z,101288.38
2022-09-21T18:30:47.717Z,101293.50
2022-09-21T18:33:47.084Z,101289.31
2022-09-21T18:36:34.870Z,101286.06
2022-09-21T18:39:26.588Z,101289.28
2022-09-21T18:42:08.986Z,101289.63
2022-09-21T18:45:14.682Z,101283.13
2022-09-21T18:47:56.385Z,101291.66
2022-09-21T18:50:34.320Z,101297.78
2022-09-21T18:53:13.404Z,101302.91
2022-09-21T18:55:40.851Z,101294.81
2022-09-21T18:58:10.620Z,101303.56
2022-09-21T19:00:37.987Z,101299.75
2022-09-21T19:03:23.853Z,101290.69
2022-09-21T19:06:33.227Z,101290.19
2022-09-21T19:09:28.351Z,101297.44
2022-09-21T19:12:27.818Z,101299.88
2022-09-21T19:14:55.383Z,101298.72
2022-09-21T19:17:48.841Z,101297.66
2022-09-21T19:20:28.688Z,101299.38
2022-09-21T19:23:37.172Z,101296.59
2022-09-21T19:26:16.311Z,101296.47
2022-09-21T19:28:51.357Z,101293.59
2022-09-21T19:31:19.996Z,101302.38
2022-09-21T19:33:51.026Z,101303.00
2022-09-21T19:36:21.623Z,101302.81
2022-09-21T19:38:54.167Z,101293.00
2022-09-21T19:41:39.153Z,101290.22
2022-09-21T19:44:31.673Z,101294.72
2022-09-21T19:47:03.602Z,101294.72
2022-09-21T19:49:54.804Z,101290.13
2022-09-21T19:52:34.151Z,101280.19
2022-09-21T19:55:20.007Z,101274.75
2022-09-21T19:58:06.138Z,101268.56
2022-09-21T20:00:33.581Z,101264.84
2022-09-21T20:03:07.983Z,101260.56
2022-09-21T20:05:41.179Z,101269.31
2022-09-21T20:08:35.595Z,101253.41
2022-09-21T20:11:22.586Z,101250.72
2022-09-21T20:14:21.134Z,101254.25
2022-09-21T20:16:52.653Z,101252.44
2022-09-21T20:19:51.196Z,101258.00
2022-09-21T20:22:26.577Z,101245.41
2022-09-21T20:25:02.749Z,101251.50
2022-09-21T20:27:35.240Z,101244.56
2022-09-21T20:30:06.516Z,101243.78
2022-09-21T20:32:36.108Z,101245.63
2022-09-21T20:35:04.158Z,101252.78
2022-09-21T20:37:33.003Z,101248.31
2022-09-21T20:40:00.925Z,101240.19
2022-09-21T20:42:28.372Z,101245.72
2022-09-21T20:44:55.811Z,101249.47
2022-09-21T20:47:24.451Z,101242.31
2022-09-21T20:49:52.606Z,101241.38
2022-09-21T20:52:21.153Z,101236.97
2022-09-21T20:54:50.003Z,101231.84
2022-09-21T20:57:19.301Z,101227.47
2022-09-21T20:59:47.587Z,101230.13
2022-09-21T21:02:17.150Z,101230.47
2022-09-21T21:04:44.820Z,101233.25
2022-09-21T21:07:13.263Z,101226.41
2022-09-21T21:09:40.645Z,101233.78
2022-09-21T21:12:09.873Z,101231.94
2022-09-21T21:14:39.831Z,101224.38
2022-09-21T21:17:06.942Z,101220.00
2022-09-21T21:19:35.312Z,101221.06
2022-09-21T21:22:02.693Z,101213.38
2022-09-21T21:24:42.007Z,101217.94
2022-09-21T21:27:16.583Z,101210.91
2022-09-21T21:29:50.514Z,101202.38
2022-09-21T21:32:27.837Z,101194.41
2022-09-21T21:34:57.818Z,101183.81
2022-09-21T21:37:26.551Z,101181.34
2022-09-21T21:39:54.290Z,101176.31
2022-09-21T21:42:22.007Z,101173.84
2022-09-21T21:44:50.746Z,101172.16
2022-09-21T21:47:38.664Z,101167.03
2022-09-21T21:50:06.452Z,101160.09
2022-09-21T21:52:34.739Z,101160.19
2022-09-21T21:55:02.772Z,101155.19
2022-09-21T21:57:30.126Z,101155.19
2022-09-21T21:59:57.204Z,101155.31
2022-09-21T22:02:24.576Z,101158.91
2022-09-21T22:04:51.638Z,101159.13
2022-09-21T22:07:19.052Z,101158.38
2022-09-21T22:09:46.078Z,101153.03
2022-09-21T22:12:13.146Z,101157.63
2022-09-21T22:14:40.341Z,101148.25
2022-09-21T22:17:07.433Z,101154.44
2022-09-21T22:19:34.552Z,101147.38
2022-09-21T22:22:01.588Z,101144.78
2022-09-21T22:24:28.649Z,101131.59
2022-09-21T22:26:56.145Z,101144.06
2022-09-21T22:29:23.092Z,101144.16
2022-09-21T22:31:50.980Z,101145.03
2022-09-21T22:34:18.248Z,101142.66
2022-09-21T22:36:45.548Z,101142.66
2022-09-21T22:39:12.843Z,101147.22
2022-09-21T22:41:42.339Z,101135.84
2022-09-21T22:44:10.519Z,101128.78
2022-09-21T22:46:38.243Z,101126.31
2022-09-21T22:49:05.890Z,101122.91
2022-09-21T22:51:33.479Z,101125.38
2022-09-21T22:54:01.775Z,101114.19
2022-09-21T22:56:30.883Z,101113.22
2022-09-21T22:59:00.134Z,101104.41
2022-09-21T23:01:33.902Z,101100.00
2022-09-21T23:04:04.770Z,101090.44
2022-09-21T23:06:33.773Z,101101.19
2022-09-21T23:09:02.693Z,101104.78
2022-09-21T23:11:36.764Z,101091.47
2022-09-21T23:14:04.429Z,101083.81
2022-09-21T23:16:31.856Z,101092.53
2022-09-21T23:18:59.298Z,101088.16
2022-09-21T23:21:28.754Z,101089.13
2022-09-21T23:24:00.102Z,101095.41
2022-09-21T23:26:28.897Z,101089.22
2022-09-21T23:28:58.516Z,101084.00
2022-09-21T23:31:28.604Z,101092.00
2022-09-21T23:33:57.643Z,101086.75
2022-09-21T23:36:29.509Z,101079.63
2022-09-21T23:38:57.470Z,101086.75
2022-09-21T23:41:27.319Z,101082.50
2022-09-21T23:43:54.980Z,101083.28
2022-09-21T23:46:28.974Z,101079.75
2022-09-21T23:48:56.738Z,101082.41
2022-09-21T23:53:51.694Z,101073.75
2022-09-21T23:56:21.524Z,101074.63
2022-09-21T23:58:49.542Z,101068.44
